sensor_id;sensor_type;location;lat;lon;timestamp;temperature;humidity
66343;DHT22;53144;51.524;5.080;2023-01-20T00:01:40;0.46;98.92
66343;DHT22;53144;51.524;5.080;2023-01-20T00:04:13;0.45;98.97
66343;DHT22;53144;51.524;5.080;2023-01-20T00:06:39;0.45;99.09
66343;DHT22;53144;51.524;5.080;2023-01-20T00:09:05;0.40;99.15
66343;DHT22;53144;51.524;5.080;2023-01-20T00:11:31;0.42;99.11
66343;DHT22;53144;51.524;5.080;2023-01-20T00:13:59;0.45;99.00
66343;DHT22;53144;51.524;5.080;2023-01-20T00:16:25;0.40;99.00
66343;DHT22;53144;51.524;5.080;2023-01-20T00:18:51;0.49;99.13
66343;DHT22;53144;51.524;5.080;2023-01-20T00:21:16;0.45;98.94
66343;DHT22;53144;51.524;5.080;2023-01-20T00:23:43;0.49;98.99
66343;DHT22;53144;51.524;5.080;2023-01-20T00:26:11;0.43;99.03
66343;DHT22;53144;51.524;5.080;2023-01-20T00:28:37;0.48;98.93
66343;DHT22;53144;51.524;5.080;2023-01-20T00:31:18;0.49;98.95
66343;DHT22;53144;51.524;5.080;2023-01-20T00:33:44;0.53;98.93
66343;DHT22;53144;51.524;5.080;2023-01-20T00:36:10;0.53;98.81
66343;DHT22;53144;51.524;5.080;2023-01-20T00:38:36;0.59;98.89
66343;DHT22;53144;51.524;5.080;2023-01-20T00:41:01;0.59;98.83
66343;DHT22;53144;51.524;5.080;2023-01-20T00:43:27;0.60;98.78
66343;DHT22;53144;51.524;5.080;2023-01-20T00:45:52;0.60;99.00
66343;DHT22;53144;51.524;5.080;2023-01-20T00:48:18;0.57;98.84
66343;DHT22;53144;51.524;5.080;2023-01-20T00:50:43;0.60;98.90
66343;DHT22;53144;51.524;5.080;2023-01-20T00:53:08;0.61;98.95
66343;DHT22;53144;51.524;5.080;2023-01-20T00:55:34;0.60;98.98
66343;DHT22;53144;51.524;5.080;2023-01-20T00:57:59;0.64;98.88
66343;DHT22;53144;51.524;5.080;2023-01-20T01:00:25;0.67;98.91
66343;DHT22;53144;51.524;5.080;2023-01-20T01:02:50;0.73;98.81
66343;DHT22;53144;51.524;5.080;2023-01-20T01:05:15;0.61;98.73
66343;DHT22;53144;51.524;5.080;2023-01-20T01:07:41;0.63;98.92
66343;DHT22;53144;51.524;5.080;2023-01-20T01:10:07;0.64;98.90
66343;DHT22;53144;51.524;5.080;2023-01-20T01:12:32;0.67;98.88
66343;DHT22;53144;51.524;5.080;2023-01-20T01:14:58;0.60;98.86
66343;DHT22;53144;51.524;5.080;2023-01-20T01:17:23;0.60;98.93
66343;DHT22;53144;51.524;5.080;2023-01-20T01:19:51;0.64;98.97
66343;DHT22;53144;51.524;5.080;2023-01-20T01:22:17;0.63;99.06
66343;DHT22;53144;51.524;5.080;2023-01-20T01:24:43;0.60;99.02
66343;DHT22;53144;51.524;5.080;2023-01-20T01:27:08;0.60;99.04
66343;DHT22;53144;51.524;5.080;2023-01-20T01:29:34;0.60;99.04
66343;DHT22;53144;51.524;5.080;2023-01-20T01:31:59;0.63;99.09
66343;DHT22;53144;51.524;5.080;2023-01-20T01:34:25;0.70;99.05
66343;DHT22;53144;51.524;5.080;2023-01-20T01:36:50;0.61;98.83
66343;DHT22;53144;51.524;5.080;2023-01-20T01:39:16;0.64;98.78
66343;DHT22;53144;51.524;5.080;2023-01-20T01:41:41;0.60;98.95
66343;DHT22;53144;51.524;5.080;2023-01-20T01:44:12;0.53;99.21
66343;DHT22;53144;51.524;5.080;2023-01-20T01:46:38;0.63;99.19
66343;DHT22;53144;51.524;5.080;2023-01-20T01:49:12;0.60;99.04
66343;DHT22;53144;51.524;5.080;2023-01-20T01:51:42;0.63;99.00
66343;DHT22;53144;51.524;5.080;2023-01-20T01:54:16;0.60;99.20
66343;DHT22;53144;51.524;5.080;2023-01-20T01:56:43;0.61;99.13
66343;DHT22;53144;51.524;5.080;2023-01-20T01:59:10;0.64;98.97
66343;DHT22;53144;51.524;5.080;2023-01-20T02:01:38;0.57;98.83
66343;DHT22;53144;51.524;5.080;2023-01-20T02:04:13;0.54;98.98
66343;DHT22;53144;51.524;5.080;2023-01-20T02:06:41;0.48;99.02
66343;DHT22;53144;51.524;5.080;2023-01-20T02:09:08;0.52;99.19
66343;DHT22;53144;51.524;5.080;2023-01-20T02:11:39;0.61;99.06
66343;DHT22;53144;51.524;5.080;2023-01-20T02:14:08;0.56;98.87
66343;DHT22;53144;51.524;5.080;2023-01-20T02:16:59;0.53;98.89
66343;DHT22;53144;51.524;5.080;2023-01-20T02:25:43;0.48;98.90
66343;DHT22;53144;51.524;5.080;2023-01-20T02:39:03;0.45;99.04
66343;DHT22;53144;51.524;5.080;2023-01-20T02:41:58;0.50;99.16
66343;DHT22;53144;51.524;5.080;2023-01-20T02:47:17;0.49;99.31
66343;DHT22;53144;51.524;5.080;2023-01-20T02:52:14;0.52;99.15
66343;DHT22;53144;51.524;5.080;2023-01-20T02:54:44;0.50;99.17
66343;DHT22;53144;51.524;5.080;2023-01-20T02:57:15;0.54;99.17
66343;DHT22;53144;51.524;5.080;2023-01-20T02:59:45;0.50;99.16
66343;DHT22;53144;51.524;5.080;2023-01-20T03:02:15;0.53;99.09
66343;DHT22;53144;51.524;5.080;2023-01-20T03:04:47;0.42;99.07
66343;DHT22;53144;51.524;5.080;2023-01-20T03:07:15;0.43;99.23
66343;DHT22;53144;51.524;5.080;2023-01-20T03:09:46;0.36;99.00
66343;DHT22;53144;51.524;5.080;2023-01-20T03:12:23;0.36;99.16
66343;DHT22;53144;51.524;5.080;2023-01-20T03:14:51;0.40;99.07
66343;DHT22;53144;51.524;5.080;2023-01-20T03:17:18;0.42;98.91
66343;DHT22;53144;51.524;5.080;2023-01-20T03:19:44;0.42;99.02
66343;DHT22;53144;51.524;5.080;2023-01-20T03:22:09;0.52;98.84
66343;DHT22;53144;51.524;5.080;2023-01-20T03:24:36;0.42;98.63
66343;DHT22;53144;51.524;5.080;2023-01-20T03:27:03;0.42;98.64
66343;DHT22;53144;51.524;5.080;2023-01-20T03:29:28;0.35;98.88
66343;DHT22;53144;51.524;5.080;2023-01-20T03:31:57;0.43;98.98
66343;DHT22;53144;51.524;5.080;2023-01-20T03:34:24;0.40;98.69
66343;DHT22;53144;51.524;5.080;2023-01-20T03:36:52;0.39;98.95
66343;DHT22;53144;51.524;5.080;2023-01-20T03:39:19;0.43;98.83
66343;DHT22;53144;51.524;5.080;2023-01-20T03:47:49;0.46;98.83
66343;DHT22;53144;51.524;5.080;2023-01-20T03:50:35;0.45;98.64
66343;DHT22;53144;51.524;5.080;2023-01-20T03:56:01;0.45;98.46
66343;DHT22;53144;51.524;5.080;2023-01-20T03:58:31;0.45;98.33
66343;DHT22;53144;51.524;5.080;2023-01-20T04:00:57;0.42;98.38
66343;DHT22;53144;51.524;5.080;2023-01-20T04:03:31;0.35;98.33
66343;DHT22;53144;51.524;5.080;2023-01-20T04:05:59;0.40;98.36
66343;DHT22;53144;51.524;5.080;2023-01-20T04:08:28;0.38;98.31
66343;DHT22;53144;51.524;5.080;2023-01-20T04:10:56;0.46;98.07
66343;DHT22;53144;51.524;5.080;2023-01-20T04:13:23;0.36;97.97
66343;DHT22;53144;51.524;5.080;2023-01-20T04:15:49;0.32;98.29
66343;DHT22;53144;51.524;5.080;2023-01-20T04:18:17;0.38;98.34
66343;DHT22;53144;51.524;5.080;2023-01-20T04:20:45;0.33;98.09
66343;DHT22;53144;51.524;5.080;2023-01-20T04:23:31;0.32;98.31
66343;DHT22;53144;51.524;5.080;2023-01-20T04:25:58;0.26;98.24
66343;DHT22;53144;51.524;5.080;2023-01-20T04:28:23;0.30;98.12
66343;DHT22;53144;51.524;5.080;2023-01-20T04:30:48;0.29;98.26
66343;DHT22;53144;51.524;5.080;2023-01-20T04:33:14;0.26;98.22
66343;DHT22;53144;51.524;5.080;2023-01-20T04:35:40;0.29;98.06
66343;DHT22;53144;51.524;5.080;2023-01-20T04:38:05;0.29;97.88
66343;DHT22;53144;51.524;5.080;2023-01-20T04:40:31;0.25;97.89
66343;DHT22;53144;51.524;5.080;2023-01-20T04:42:56;0.28;97.92
66343;DHT22;53144;51.524;5.080;2023-01-20T04:45:22;0.23;97.88
66343;DHT22;53144;51.524;5.080;2023-01-20T04:47:47;0.23;98.07
66343;DHT22;53144;51.524;5.080;2023-01-20T04:50:12;0.29;98.11
66343;DHT22;53144;51.524;5.080;2023-01-20T04:52:39;0.26;98.09
66343;DHT22;53144;51.524;5.080;2023-01-20T04:55:05;0.36;97.93
66343;DHT22;53144;51.524;5.080;2023-01-20T04:57:30;0.38;97.75
66343;DHT22;53144;51.524;5.080;2023-01-20T04:59:56;0.26;97.92
66343;DHT22;53144;51.524;5.080;2023-01-20T05:02:21;0.33;97.86
66343;DHT22;53144;51.524;5.080;2023-01-20T05:04:47;0.38;97.63
66343;DHT22;53144;51.524;5.080;2023-01-20T05:07:12;0.36;97.61
66343;DHT22;53144;51.524;5.080;2023-01-20T05:09:37;0.39;97.62
66343;DHT22;53144;51.524;5.080;2023-01-20T05:12:03;0.35;97.45
66343;DHT22;53144;51.524;5.080;2023-01-20T05:14:29;0.30;97.67
66343;DHT22;53144;51.524;5.080;2023-01-20T05:16:54;0.35;97.68
66343;DHT22;53144;51.524;5.080;2023-01-20T05:19:20;0.40;97.58
66343;DHT22;53144;51.524;5.080;2023-01-20T05:21:45;0.45;97.58
66343;DHT22;53144;51.524;5.080;2023-01-20T05:24:11;0.46;97.68
66343;DHT22;53144;51.524;5.080;2023-01-20T05:26:36;0.39;97.27
66343;DHT22;53144;51.524;5.080;2023-01-20T05:29:02;0.40;97.52
66343;DHT22;53144;51.524;5.080;2023-01-20T05:31:27;0.38;97.50
66343;DHT22;53144;51.524;5.080;2023-01-20T05:33:53;0.42;97.67
66343;DHT22;53144;51.524;5.080;2023-01-20T05:36:18;0.36;97.50
66343;DHT22;53144;51.524;5.080;2023-01-20T05:38:44;0.38;97.34
66343;DHT22;53144;51.524;5.080;2023-01-20T05:41:09;0.38;97.62
66343;DHT22;53144;51.524;5.080;2023-01-20T05:43:35;0.40;97.56
66343;DHT22;53144;51.524;5.080;2023-01-20T05:46:01;0.43;97.60
66343;DHT22;53144;51.524;5.080;2023-01-20T05:48:27;0.46;97.44
66343;DHT22;53144;51.524;5.080;2023-01-20T05:50:52;0.48;97.23
66343;DHT22;53144;51.524;5.080;2023-01-20T05:53:18;0.48;97.22
66343;DHT22;53144;51.524;5.080;2023-01-20T05:55:44;0.42;97.58
66343;DHT22;53144;51.524;5.080;2023-01-20T05:58:10;0.48;97.54
66343;DHT22;53144;51.524;5.080;2023-01-20T06:00:36;0.46;97.59
66343;DHT22;53144;51.524;5.080;2023-01-20T06:03:01;0.49;97.72
66343;DHT22;53144;51.524;5.080;2023-01-20T06:05:27;0.45;97.61
66343;DHT22;53144;51.524;5.080;2023-01-20T06:07:56;0.46;97.67
66343;DHT22;53144;51.524;5.080;2023-01-20T06:10:22;0.46;97.60
66343;DHT22;53144;51.524;5.080;2023-01-20T06:12:54;0.46;97.81
66343;DHT22;53144;51.524;5.080;2023-01-20T06:15:20;0.45;97.92
66343;DHT22;53144;51.524;5.080;2023-01-20T06:17:48;0.45;98.00
66343;DHT22;53144;51.524;5.080;2023-01-20T06:20:13;0.42;98.12
66343;DHT22;53144;51.524;5.080;2023-01-20T06:22:39;0.42;98.28
66343;DHT22;53144;51.524;5.080;2023-01-20T06:25:04;0.45;98.52
66343;DHT22;53144;51.524;5.080;2023-01-20T06:27:29;0.46;98.41
66343;DHT22;53144;51.524;5.080;2023-01-20T06:29:55;0.49;98.54
66343;DHT22;53144;51.524;5.080;2023-01-20T06:32:20;0.48;98.53
66343;DHT22;53144;51.524;5.080;2023-01-20T06:34:46;0.50;98.66
66343;DHT22;53144;51.524;5.080;2023-01-20T06:37:11;0.43;98.79
66343;DHT22;53144;51.524;5.080;2023-01-20T06:39:37;0.38;98.89
66343;DHT22;53144;51.524;5.080;2023-01-20T06:42:03;0.43;99.22
66343;DHT22;53144;51.524;5.080;2023-01-20T06:44:28;0.40;99.12
66343;DHT22;53144;51.524;5.080;2023-01-20T06:46:53;0.40;99.13
66343;DHT22;53144;51.524;5.080;2023-01-20T06:49:19;0.40;99.17
66343;DHT22;53144;51.524;5.080;2023-01-20T06:51:44;0.35;99.33
66343;DHT22;53144;51.524;5.080;2023-01-20T06:54:11;0.36;99.49
66343;DHT22;53144;51.524;5.080;2023-01-20T06:56:37;0.33;99.58
66343;DHT22;53144;51.524;5.080;2023-01-20T06:59:02;0.35;99.62
66343;DHT22;53144;51.524;5.080;2023-01-20T07:01:29;0.45;99.58
66343;DHT22;53144;51.524;5.080;2023-01-20T07:03:55;0.38;99.36
66343;DHT22;53144;51.524;5.080;2023-01-20T07:08:49;0.36;99.49
66343;DHT22;53144;51.524;5.080;2023-01-20T07:11:15;0.43;99.51
66343;DHT22;53144;51.524;5.080;2023-01-20T07:13:40;0.45;99.41
66343;DHT22;53144;51.524;5.080;2023-01-20T07:16:06;0.45;99.41
66343;DHT22;53144;51.524;5.080;2023-01-20T07:18:31;0.45;99.27
66343;DHT22;53144;51.524;5.080;2023-01-20T07:20:57;0.46;99.40
66343;DHT22;53144;51.524;5.080;2023-01-20T07:23:23;0.42;99.43
66343;DHT22;53144;51.524;5.080;2023-01-20T07:26:08;0.48;99.54
66343;DHT22;53144;51.524;5.080;2023-01-20T07:28:34;0.48;99.58
66343;DHT22;53144;51.524;5.080;2023-01-20T07:31:07;0.49;99.66
66343;DHT22;53144;51.524;5.080;2023-01-20T07:33:33;0.46;99.71
66343;DHT22;53144;51.524;5.080;2023-01-20T07:35:59;0.50;99.68
66343;DHT22;53144;51.524;5.080;2023-01-20T07:38:25;0.49;99.59
66343;DHT22;53144;51.524;5.080;2023-01-20T07:40:50;0.50;99.56
66343;DHT22;53144;51.524;5.080;2023-01-20T07:43:16;0.46;99.52
66343;DHT22;53144;51.524;5.080;2023-01-20T07:45:41;0.56;99.57
66343;DHT22;53144;51.524;5.080;2023-01-20T07:48:07;0.53;99.21
66343;DHT22;53144;51.524;5.080;2023-01-20T07:50:34;0.60;99.07
66343;DHT22;53144;51.524;5.080;2023-01-20T07:53:00;0.54;98.99
66343;DHT22;53144;51.524;5.080;2023-01-20T07:55:25;0.54;99.08
66343;DHT22;53144;51.524;5.080;2023-01-20T07:57:51;0.53;98.93
66343;DHT22;53144;51.524;5.080;2023-01-20T08:00:17;0.56;99.06
66343;DHT22;53144;51.524;5.080;2023-01-20T08:02:43;0.61;99.07
66343;DHT22;53144;51.524;5.080;2023-01-20T08:05:08;0.60;98.98
66343;DHT22;53144;51.524;5.080;2023-01-20T08:07:37;0.66;98.85
66343;DHT22;53144;51.524;5.080;2023-01-20T08:10:04;0.67;98.60
66343;DHT22;53144;51.524;5.080;2023-01-20T08:12:39;0.64;98.48
66343;DHT22;53144;51.524;5.080;2023-01-20T08:15:05;0.64;98.55
66343;DHT22;53144;51.524;5.080;2023-01-20T08:17:32;0.59;98.60
66343;DHT22;53144;51.524;5.080;2023-01-20T08:19:58;0.57;98.78
66343;DHT22;53144;51.524;5.080;2023-01-20T08:22:26;0.61;98.82
66343;DHT22;53144;51.524;5.080;2023-01-20T08:24:51;0.69;98.63
66343;DHT22;53144;51.524;5.080;2023-01-20T08:27:17;0.59;98.59
66343;DHT22;53144;51.524;5.080;2023-01-20T08:29:43;0.57;98.72
66343;DHT22;53144;51.524;5.080;2023-01-20T08:32:12;0.59;98.78
66343;DHT22;53144;51.524;5.080;2023-01-20T08:34:37;0.53;99.00
66343;DHT22;53144;51.524;5.080;2023-01-20T08:37:05;0.60;98.98
66343;DHT22;53144;51.524;5.080;2023-01-20T08:39:31;0.61;98.92
66343;DHT22;53144;51.524;5.080;2023-01-20T08:41:57;0.61;98.78
66343;DHT22;53144;51.524;5.080;2023-01-20T08:44:22;0.52;99.00
66343;DHT22;53144;51.524;5.080;2023-01-20T08:46:47;0.59;99.00
66343;DHT22;53144;51.524;5.080;2023-01-20T08:49:17;0.53;99.07
66343;DHT22;53144;51.524;5.080;2023-01-20T08:51:43;0.60;99.07
66343;DHT22;53144;51.524;5.080;2023-01-20T08:54:13;0.61;99.11
66343;DHT22;53144;51.524;5.080;2023-01-20T08:56:39;0.64;98.92
66343;DHT22;53144;51.524;5.080;2023-01-20T08:59:04;0.60;98.86
66343;DHT22;53144;51.524;5.080;2023-01-20T09:01:32;0.61;98.98
66343;DHT22;53144;51.524;5.080;2023-01-20T09:03:59;0.61;98.93
66343;DHT22;53144;51.524;5.080;2023-01-20T09:06:25;0.67;98.92
66343;DHT22;53144;51.524;5.080;2023-01-20T09:08:51;0.69;98.78
66343;DHT22;53144;51.524;5.080;2023-01-20T09:11:19;0.70;98.77
66343;DHT22;53144;51.524;5.080;2023-01-20T09:13:45;0.70;98.82
66343;DHT22;53144;51.524;5.080;2023-01-20T09:16:11;0.70;98.81
66343;DHT22;53144;51.524;5.080;2023-01-20T09:18:37;0.69;98.82
66343;DHT22;53144;51.524;5.080;2023-01-20T09:21:03;0.70;98.78
66343;DHT22;53144;51.524;5.080;2023-01-20T09:23:36;0.73;98.70
66343;DHT22;53144;51.524;5.080;2023-01-20T09:26:05;0.70;98.62
66343;DHT22;53144;51.524;5.080;2023-01-20T09:28:31;0.69;98.74
66343;DHT22;53144;51.524;5.080;2023-01-20T09:31:01;0.64;98.70
66343;DHT22;53144;51.524;5.080;2023-01-20T09:33:29;0.66;98.76
66343;DHT22;53144;51.524;5.080;2023-01-20T09:35:55;0.66;98.83
66343;DHT22;53144;51.524;5.080;2023-01-20T09:38:21;0.67;98.73
66343;DHT22;53144;51.524;5.080;2023-01-20T09:41:28;0.63;98.68
66343;DHT22;53144;51.524;5.080;2023-01-20T09:50:02;0.63;98.98
66343;DHT22;53144;51.524;5.080;2023-01-20T09:52:48;0.66;98.88
66343;DHT22;53144;51.524;5.080;2023-01-20T09:55:52;0.64;98.96
66343;DHT22;53144;51.524;5.080;2023-01-20T10:01:16;0.67;98.88
66343;DHT22;53144;51.524;5.080;2023-01-20T10:06:46;0.77;98.75
66343;DHT22;53144;51.524;5.080;2023-01-20T10:11:45;0.84;98.79
66343;DHT22;53144;51.524;5.080;2023-01-20T10:14:24;0.88;98.79
66343;DHT22;53144;51.524;5.080;2023-01-20T10:16:53;0.91;98.70
66343;DHT22;53144;51.524;5.080;2023-01-20T10:19:36;0.88;98.50
66343;DHT22;53144;51.524;5.080;2023-01-20T10:22:12;0.94;98.80
66343;DHT22;53144;51.524;5.080;2023-01-20T10:24:47;0.85;98.57
66343;DHT22;53144;51.524;5.080;2023-01-20T10:27:16;0.77;98.73
66343;DHT22;53144;51.524;5.080;2023-01-20T10:29:50;0.70;98.94
66343;DHT22;53144;51.524;5.080;2023-01-20T10:32:47;0.90;98.91
66343;DHT22;53144;51.524;5.080;2023-01-20T10:35:21;0.98;98.59
66343;DHT22;53144;51.524;5.080;2023-01-20T10:37:47;1.07;98.03
66343;DHT22;53144;51.524;5.080;2023-01-20T10:40:33;1.15;97.51
66343;DHT22;53144;51.524;5.080;2023-01-20T10:43:08;1.07;97.41
66343;DHT22;53144;51.524;5.080;2023-01-20T10:45:50;1.01;97.52
66343;DHT22;53144;51.524;5.080;2023-01-20T10:54:00;1.07;97.58
66343;DHT22;53144;51.524;5.080;2023-01-20T10:56:37;1.09;97.32
66343;DHT22;53144;51.524;5.080;2023-01-20T10:59:16;1.22;97.44
66343;DHT22;53144;51.524;5.080;2023-01-20T11:01:45;1.24;96.99
66343;DHT22;53144;51.524;5.080;2023-01-20T11:04:18;1.14;97.56
66343;DHT22;53144;51.524;5.080;2023-01-20T11:06:47;1.24;97.47
66343;DHT22;53144;51.524;5.080;2023-01-20T11:09:31;1.27;97.47
66343;DHT22;53144;51.524;5.080;2023-01-20T11:11:58;1.48;97.45
66343;DHT22;53144;51.524;5.080;2023-01-20T11:14:24;1.36;96.94
66343;DHT22;53144;51.524;5.080;2023-01-20T11:16:58;1.48;97.10
66343;DHT22;53144;51.524;5.080;2023-01-20T11:19:25;1.40;96.52
66343;DHT22;53144;51.524;5.080;2023-01-20T11:21:50;1.48;96.80
66343;DHT22;53144;51.524;5.080;2023-01-20T11:24:40;1.49;96.43
66343;DHT22;53144;51.524;5.080;2023-01-20T11:27:13;1.53;96.49
66343;DHT22;53144;51.524;5.080;2023-01-20T11:30:05;1.45;96.86
66343;DHT22;53144;51.524;5.080;2023-01-20T11:32:33;1.49;97.00
66343;DHT22;53144;51.524;5.080;2023-01-20T11:35:00;1.50;96.55
66343;DHT22;53144;51.524;5.080;2023-01-20T11:37:38;1.48;96.51
66343;DHT22;53144;51.524;5.080;2023-01-20T11:40:26;1.49;96.54
66343;DHT22;53144;51.524;5.080;2023-01-20T11:42:53;1.64;96.24
66343;DHT22;53144;51.524;5.080;2023-01-20T11:48:15;1.81;95.74
66343;DHT22;53144;51.524;5.080;2023-01-20T11:51:18;1.84;95.84
66343;DHT22;53144;51.524;5.080;2023-01-20T11:53:44;1.71;95.69
66343;DHT22;53144;51.524;5.080;2023-01-20T11:56:17;1.62;96.08
66343;DHT22;53144;51.524;5.080;2023-01-20T11:58:55;1.69;96.36
66343;DHT22;53144;51.524;5.080;2023-01-20T12:01:23;1.74;96.13
66343;DHT22;53144;51.524;5.080;2023-01-20T12:06:29;2.04;95.65
66343;DHT22;53144;51.524;5.080;2023-01-20T12:09:02;2.15;95.79
66343;DHT22;53144;51.524;5.080;2023-01-20T12:14:50;2.18;95.88
66343;DHT22;53144;51.524;5.080;2023-01-20T12:17:39;2.13;96.10
66343;DHT22;53144;51.524;5.080;2023-01-20T12:22:52;2.03;96.86
66343;DHT22;53144;51.524;5.080;2023-01-20T12:25:22;2.03;96.95
66343;DHT22;53144;51.524;5.080;2023-01-20T12:27:56;1.98;96.76
66343;DHT22;53144;51.524;5.080;2023-01-20T12:30:28;1.96;97.46
66343;DHT22;53144;51.524;5.080;2023-01-20T12:32:56;1.93;97.50
66343;DHT22;53144;51.524;5.080;2023-01-20T12:35:25;2.03;97.17
66343;DHT22;53144;51.524;5.080;2023-01-20T12:37:59;1.98;96.71
66343;DHT22;53144;51.524;5.080;2023-01-20T12:40:52;1.94;96.87
66343;DHT22;53144;51.524;5.080;2023-01-20T12:46:25;1.81;97.06
66343;DHT22;53144;51.524;5.080;2023-01-20T12:49:01;1.76;96.91
66343;DHT22;53144;51.524;5.080;2023-01-20T12:51:32;1.70;96.94
66343;DHT22;53144;51.524;5.080;2023-01-20T12:54:30;1.74;96.75
66343;DHT22;53144;51.524;5.080;2023-01-20T13:07:40;1.60;96.85
66343;DHT22;53144;51.524;5.080;2023-01-20T13:15:37;1.53;97.50
66343;DHT22;53144;51.524;5.080;2023-01-20T13:19:09;1.52;97.39
66343;DHT22;53144;51.524;5.080;2023-01-20T13:21:12;1.58;97.38
66343;DHT22;53144;51.524;5.080;2023-01-20T13:23:43;1.46;97.48
66343;DHT22;53144;51.524;5.080;2023-01-20T13:26:10;1.42;97.70
66343;DHT22;53144;51.524;5.080;2023-01-20T13:28:37;1.36;97.88
66343;DHT22;53144;51.524;5.080;2023-01-20T13:31:29;1.31;98.24
66343;DHT22;53144;51.524;5.080;2023-01-20T13:37:17;1.38;98.41
66343;DHT22;53144;51.524;5.080;2023-01-20T13:39:45;1.34;98.52
66343;DHT22;53144;51.524;5.080;2023-01-20T13:48:20;1.32;98.68
66343;DHT22;53144;51.524;5.080;2023-01-20T13:50:46;1.29;98.78
66343;DHT22;53144;51.524;5.080;2023-01-20T13:58:16;1.38;98.42
66343;DHT22;53144;51.524;5.080;2023-01-20T14:00:44;1.34;98.17
66343;DHT22;53144;51.524;5.080;2023-01-20T14:05:50;1.15;98.08
66343;DHT22;53144;51.524;5.080;2023-01-20T14:08:17;1.11;98.31
66343;DHT22;53144;51.524;5.080;2023-01-20T14:10:43;1.07;98.53
66343;DHT22;53144;51.524;5.080;2023-01-20T14:13:22;1.11;98.66
66343;DHT22;53144;51.524;5.080;2023-01-20T14:15:51;1.14;98.44
66343;DHT22;53144;51.524;5.080;2023-01-20T14:18:19;1.15;98.13
66343;DHT22;53144;51.524;5.080;2023-01-20T14:21:03;1.15;97.96
66343;DHT22;53144;51.524;5.080;2023-01-20T14:25:58;1.09;98.23
66343;DHT22;53144;51.524;5.080;2023-01-20T14:28:24;1.07;98.15
66343;DHT22;53144;51.524;5.080;2023-01-20T14:31:48;1.01;98.65
66343;DHT22;53144;51.524;5.080;2023-01-20T14:33:56;1.00;98.78
66343;DHT22;53144;51.524;5.080;2023-01-20T14:36:24;1.00;98.71
66343;DHT22;53144;51.524;5.080;2023-01-20T14:39:13;1.00;98.57
66343;DHT22;53144;51.524;5.080;2023-01-20T14:44:17;0.95;98.66
66343;DHT22;53144;51.524;5.080;2023-01-20T14:46:44;0.98;98.60
66343;DHT22;53144;51.524;5.080;2023-01-20T14:49:13;0.95;98.43
66343;DHT22;53144;51.524;5.080;2023-01-20T14:51:40;1.07;98.44
66343;DHT22;53144;51.524;5.080;2023-01-20T14:54:28;1.00;98.18
66343;DHT22;53144;51.524;5.080;2023-01-20T14:56:55;0.98;98.27
66343;DHT22;53144;51.524;5.080;2023-01-20T14:59:21;0.85;98.20
66343;DHT22;53144;51.524;5.080;2023-01-20T15:01:51;0.73;98.46
66343;DHT22;53144;51.524;5.080;2023-01-20T15:04:17;0.83;98.61
66343;DHT22;53144;51.524;5.080;2023-01-20T15:06:50;0.81;98.65
66343;DHT22;53144;51.524;5.080;2023-01-20T15:09:30;0.90;98.39
66343;DHT22;53144;51.524;5.080;2023-01-20T15:17:46;0.83;98.10
66343;DHT22;53144;51.524;5.080;2023-01-20T15:20:28;0.79;98.32
66343;DHT22;53144;51.524;5.080;2023-01-20T15:22:55;0.77;98.41
66343;DHT22;53144;51.524;5.080;2023-01-20T15:25:21;0.85;98.40
66343;DHT22;53144;51.524;5.080;2023-01-20T15:27:51;0.79;98.28
66343;DHT22;53144;51.524;5.080;2023-01-20T15:30:21;0.83;98.26
66343;DHT22;53144;51.524;5.080;2023-01-20T15:32:50;0.81;98.24
66343;DHT22;53144;51.524;5.080;2023-01-20T15:35:18;0.84;98.15
66343;DHT22;53144;51.524;5.080;2023-01-20T15:37:45;0.91;98.48
66343;DHT22;53144;51.524;5.080;2023-01-20T15:40:22;0.87;98.38
66343;DHT22;53144;51.524;5.080;2023-01-20T15:42:49;0.95;98.15
66343;DHT22;53144;51.524;5.080;2023-01-20T15:45:15;0.87;98.16
66343;DHT22;53144;51.524;5.080;2023-01-20T15:47:42;0.79;98.16
66343;DHT22;53144;51.524;5.080;2023-01-20T15:50:20;0.77;98.35
66343;DHT22;53144;51.524;5.080;2023-01-20T15:52:46;0.71;98.54
66343;DHT22;53144;51.524;5.080;2023-01-20T15:55:16;0.84;98.75
66343;DHT22;53144;51.524;5.080;2023-01-20T15:57:51;0.81;98.43
66343;DHT22;53144;51.524;5.080;2023-01-20T16:00:19;0.83;98.19
66343;DHT22;53144;51.524;5.080;2023-01-20T16:02:45;0.88;98.25
66343;DHT22;53144;51.524;5.080;2023-01-20T16:05:11;0.87;98.12
66343;DHT22;53144;51.524;5.080;2023-01-20T16:07:37;0.90;98.18
66343;DHT22;53144;51.524;5.080;2023-01-20T16:10:03;0.84;97.98
66343;DHT22;53144;51.524;5.080;2023-01-20T16:12:29;0.91;98.23
66343;DHT22;53144;51.524;5.080;2023-01-20T16:14:54;0.87;98.12
66343;DHT22;53144;51.524;5.080;2023-01-20T16:17:20;0.92;98.00
66343;DHT22;53144;51.524;5.080;2023-01-20T16:19:46;0.97;97.99
66343;DHT22;53144;51.524;5.080;2023-01-20T16:22:12;0.90;97.92
66343;DHT22;53144;51.524;5.080;2023-01-20T16:24:38;0.87;98.37
66343;DHT22;53144;51.524;5.080;2023-01-20T16:27:13;0.92;98.05
66343;DHT22;53144;51.524;5.080;2023-01-20T16:29:40;0.84;98.40
66343;DHT22;53144;51.524;5.080;2023-01-20T16:32:06;0.85;98.62
66343;DHT22;53144;51.524;5.080;2023-01-20T16:34:31;0.88;98.51
66343;DHT22;53144;51.524;5.080;2023-01-20T16:36:56;0.88;98.48
66343;DHT22;53144;51.524;5.080;2023-01-20T16:39:22;0.84;98.60
66343;DHT22;53144;51.524;5.080;2023-01-20T16:41:47;0.95;98.57
66343;DHT22;53144;51.524;5.080;2023-01-20T16:44:16;1.01;98.32
66343;DHT22;53144;51.524;5.080;2023-01-20T16:46:41;1.01;98.02
66343;DHT22;53144;51.524;5.080;2023-01-20T16:49:09;0.95;98.14
66343;DHT22;53144;51.524;5.080;2023-01-20T16:51:35;1.00;98.11
66343;DHT22;53144;51.524;5.080;2023-01-20T16:54:00;1.02;98.18
66343;DHT22;53144;51.524;5.080;2023-01-20T16:56:28;1.00;98.27
66343;DHT22;53144;51.524;5.080;2023-01-20T16:58:55;0.98;98.24
66343;DHT22;53144;51.524;5.080;2023-01-20T17:01:26;1.02;98.56
66343;DHT22;53144;51.524;5.080;2023-01-20T17:03:55;1.01;98.54
66343;DHT22;53144;51.524;5.080;2023-01-20T17:06:23;1.00;98.70
66343;DHT22;53144;51.524;5.080;2023-01-20T17:08:51;1.01;98.65
66343;DHT22;53144;51.524;5.080;2023-01-20T17:11:17;0.92;98.71
66343;DHT22;53144;51.524;5.080;2023-01-20T17:13:42;0.92;98.68
66343;DHT22;53144;51.524;5.080;2023-01-20T17:16:08;0.98;98.75
66343;DHT22;53144;51.524;5.080;2023-01-20T17:18:33;1.00;98.54
66343;DHT22;53144;51.524;5.080;2023-01-20T17:21:03;1.07;98.48
66343;DHT22;53144;51.524;5.080;2023-01-20T17:23:29;1.01;98.37
66343;DHT22;53144;51.524;5.080;2023-01-20T17:25:55;0.98;98.57
66343;DHT22;53144;51.524;5.080;2023-01-20T17:28:20;1.12;98.27
66343;DHT22;53144;51.524;5.080;2023-01-20T17:30:45;1.08;97.90
66343;DHT22;53144;51.524;5.080;2023-01-20T17:33:11;1.05;97.97
66343;DHT22;53144;51.524;5.080;2023-01-20T17:35:37;1.00;97.94
66343;DHT22;53144;51.524;5.080;2023-01-20T17:38:02;1.08;98.01
66343;DHT22;53144;51.524;5.080;2023-01-20T17:40:27;1.12;97.47
66343;DHT22;53144;51.524;5.080;2023-01-20T17:42:53;1.14;97.26
66343;DHT22;53144;51.524;5.080;2023-01-20T17:45:18;1.14;97.36
66343;DHT22;53144;51.524;5.080;2023-01-20T17:47:44;1.11;97.11
66343;DHT22;53144;51.524;5.080;2023-01-20T17:50:09;1.19;97.14